sensor_id;sensor_type;location;lat;lon;timestamp;P1;durP1;ratioP1;P2;durP2;ratioP2
28481;SDS011;15703;49.588;6.260;2023-03-14T00:01:36;7.13;;;2.70;;
28481;SDS011;15703;49.588;6.260;2023-03-14T00:03:59;14.30;;;3.33;;
28481;SDS011;15703;49.588;6.260;2023-03-14T00:06:21;12.13;;;2.93;;
28481;SDS011;15703;49.588;6.260;2023-03-14T00:08:44;12.33;;;3.17;;
28481;SDS011;15703;49.588;6.260;2023-03-14T00:11:07;10.53;;;3.10;;
28481;SDS011;15703;49.588;6.260;2023-03-14T00:13:30;12.17;;;3.30;;
28481;SDS011;15703;49.588;6.260;2023-03-14T00:15:52;11.20;;;3.33;;
28481;SDS011;15703;49.588;6.260;2023-03-14T00:18:14;5.90;;;2.63;;
28481;SDS011;15703;49.588;6.260;2023-03-14T00:20:37;10.07;;;2.90;;
28481;SDS011;15703;49.588;6.260;2023-03-14T00:22:59;12.07;;;2.60;;
28481;SDS011;15703;49.588;6.260;2023-03-14T00:25:21;9.80;;;3.03;;
28481;SDS011;15703;49.588;6.260;2023-03-14T00:27:44;9.17;;;2.93;;
28481;SDS011;15703;49.588;6.260;2023-03-14T00:30:08;6.60;;;2.47;;
28481;SDS011;15703;49.588;6.260;2023-03-14T00:32:31;10.70;;;3.07;;
28481;SDS011;15703;49.588;6.260;2023-03-14T00:34:55;5.23;;;2.40;;
28481;SDS011;15703;49.588;6.260;2023-03-14T00:37:20;7.80;;;2.77;;
28481;SDS011;15703;49.588;6.260;2023-03-14T00:39:43;9.57;;;3.07;;
28481;SDS011;15703;49.588;6.260;2023-03-14T00:42:05;8.47;;;2.73;;
28481;SDS011;15703;49.588;6.260;2023-03-14T00:44:27;6.83;;;2.03;;
28481;SDS011;15703;49.588;6.260;2023-03-14T00:46:50;7.10;;;2.47;;
28481;SDS011;15703;49.588;6.260;2023-03-14T00:49:12;10.60;;;3.17;;
28481;SDS011;15703;49.588;6.260;2023-03-14T00:51:35;7.77;;;2.50;;
28481;SDS011;15703;49.588;6.260;2023-03-14T00:53:57;8.63;;;3.10;;
28481;SDS011;15703;49.588;6.260;2023-03-14T00:56:20;10.97;;;2.83;;
28481;SDS011;15703;49.588;6.260;2023-03-14T00:58:42;9.97;;;2.93;;
28481;SDS011;15703;49.588;6.260;2023-03-14T01:01:09;12.80;;;3.27;;
28481;SDS011;15703;49.588;6.260;2023-03-14T01:03:31;7.43;;;2.37;;
28481;SDS011;15703;49.588;6.260;2023-03-14T01:05:54;12.63;;;2.83;;
28481;SDS011;15703;49.588;6.260;2023-03-14T01:08:16;9.10;;;2.30;;
28481;SDS011;15703;49.588;6.260;2023-03-14T01:10:39;8.07;;;2.73;;
28481;SDS011;15703;49.588;6.260;2023-03-14T01:13:01;9.60;;;2.50;;
28481;SDS011;15703;49.588;6.260;2023-03-14T01:15:24;7.40;;;2.40;;
28481;SDS011;15703;49.588;6.260;2023-03-14T01:17:46;9.23;;;2.57;;
28481;SDS011;15703;49.588;6.260;2023-03-14T01:20:10;11.07;;;2.60;;
28481;SDS011;15703;49.588;6.260;2023-03-14T01:22:33;10.03;;;2.30;;
28481;SDS011;15703;49.588;6.260;2023-03-14T01:24:55;5.33;;;1.87;;
28481;SDS011;15703;49.588;6.260;2023-03-14T01:27:18;9.90;;;2.80;;
28481;SDS011;15703;49.588;6.260;2023-03-14T01:29:40;11.53;;;2.67;;
28481;SDS011;15703;49.588;6.260;2023-03-14T01:32:03;9.40;;;2.37;;
28481;SDS011;15703;49.588;6.260;2023-03-14T01:34:26;11.23;;;2.93;;
28481;SDS011;15703;49.588;6.260;2023-03-14T01:36:48;13.57;;;2.60;;
28481;SDS011;15703;49.588;6.260;2023-03-14T01:39:11;8.97;;;3.07;;
28481;SDS011;15703;49.588;6.260;2023-03-14T01:41:35;9.90;;;2.40;;
28481;SDS011;15703;49.588;6.260;2023-03-14T01:43:57;6.60;;;2.70;;
28481;SDS011;15703;49.588;6.260;2023-03-14T01:46:20;7.70;;;2.33;;
28481;SDS011;15703;49.588;6.260;2023-03-14T01:48:58;12.70;;;2.60;;
28481;SDS011;15703;49.588;6.260;2023-03-14T01:53:48;12.30;;;3.37;;
28481;SDS011;15703;49.588;6.260;2023-03-14T01:56:12;9.03;;;2.70;;
28481;SDS011;15703;49.588;6.260;2023-03-14T01:58:36;14.80;;;3.90;;
28481;SDS011;15703;49.588;6.260;2023-03-14T02:01:00;13.50;;;3.10;;
28481;SDS011;15703;49.588;6.260;2023-03-14T02:03:23;8.73;;;2.83;;
28481;SDS011;15703;49.588;6.260;2023-03-14T02:05:47;11.20;;;2.50;;
28481;SDS011;15703;49.588;6.260;2023-03-14T02:08:14;9.63;;;2.90;;
28481;SDS011;15703;49.588;6.260;2023-03-14T02:10:46;11.40;;;3.07;;
28481;SDS011;15703;49.588;6.260;2023-03-14T02:13:14;10.87;;;2.77;;
28481;SDS011;15703;49.588;6.260;2023-03-14T02:16:08;10.00;;;2.70;;
28481;SDS011;15703;49.588;6.260;2023-03-14T02:18:37;10.53;;;3.03;;
28481;SDS011;15703;49.588;6.260;2023-03-14T02:24:13;6.80;;;2.37;;
28481;SDS011;15703;49.588;6.260;2023-03-14T02:26:44;7.23;;;2.63;;
28481;SDS011;15703;49.588;6.260;2023-03-14T02:29:07;7.30;;;2.80;;
28481;SDS011;15703;49.588;6.260;2023-03-14T02:31:30;9.90;;;2.10;;
28481;SDS011;15703;49.588;6.260;2023-03-14T02:33:52;10.43;;;2.73;;
28481;SDS011;15703;49.588;6.260;2023-03-14T02:36:14;6.90;;;2.30;;
28481;SDS011;15703;49.588;6.260;2023-03-14T02:38:40;10.03;;;2.60;;
28481;SDS011;15703;49.588;6.260;2023-03-14T02:41:03;10.03;;;2.70;;
28481;SDS011;15703;49.588;6.260;2023-03-14T02:43:31;8.30;;;2.50;;
28481;SDS011;15703;49.588;6.260;2023-03-14T02:46:07;10.20;;;2.60;;
28481;SDS011;15703;49.588;6.260;2023-03-14T02:48:31;7.40;;;2.20;;
28481;SDS011;15703;49.588;6.260;2023-03-14T02:50:56;4.77;;;2.13;;
28481;SDS011;15703;49.588;6.260;2023-03-14T02:53:21;7.97;;;2.40;;
28481;SDS011;15703;49.588;6.260;2023-03-14T02:55:48;9.40;;;2.53;;
28481;SDS011;15703;49.588;6.260;2023-03-14T02:58:13;9.30;;;2.80;;
28481;SDS011;15703;49.588;6.260;2023-03-14T03:00:36;10.00;;;2.77;;
28481;SDS011;15703;49.588;6.260;2023-03-14T03:03:01;8.67;;;2.30;;
28481;SDS011;15703;49.588;6.260;2023-03-14T03:05:23;8.03;;;2.30;;
28481;SDS011;15703;49.588;6.260;2023-03-14T03:07:45;10.33;;;2.80;;
28481;SDS011;15703;49.588;6.260;2023-03-14T03:10:08;7.97;;;2.60;;
28481;SDS011;15703;49.588;6.260;2023-03-14T03:12:31;7.77;;;2.80;;
28481;SDS011;15703;49.588;6.260;2023-03-14T03:14:53;8.40;;;2.40;;
28481;SDS011;15703;49.588;6.260;2023-03-14T03:17:15;10.67;;;2.70;;
28481;SDS011;15703;49.588;6.260;2023-03-14T03:19:38;8.37;;;2.20;;
28481;SDS011;15703;49.588;6.260;2023-03-14T03:22:00;8.63;;;3.03;;
28481;SDS011;15703;49.588;6.260;2023-03-14T03:24:23;9.37;;;2.33;;
28481;SDS011;15703;49.588;6.260;2023-03-14T03:26:46;7.97;;;2.77;;
28481;SDS011;15703;49.588;6.260;2023-03-14T03:29:08;6.00;;;1.97;;
28481;SDS011;15703;49.588;6.260;2023-03-14T03:31:30;4.80;;;1.77;;
28481;SDS011;15703;49.588;6.260;2023-03-14T03:33:53;13.80;;;2.50;;
28481;SDS011;15703;49.588;6.260;2023-03-14T03:36:17;6.97;;;2.63;;
28481;SDS011;15703;49.588;6.260;2023-03-14T03:38:42;4.50;;;2.00;;
28481;SDS011;15703;49.588;6.260;2023-03-14T03:41:05;5.70;;;1.60;;
28481;SDS011;15703;49.588;6.260;2023-03-14T03:43:28;7.17;;;2.40;;
28481;SDS011;15703;49.588;6.260;2023-03-14T03:45:52;8.40;;;2.13;;
28481;SDS011;15703;49.588;6.260;2023-03-14T03:48:16;7.93;;;2.57;;
28481;SDS011;15703;49.588;6.260;2023-03-14T03:50:43;6.40;;;1.83;;
28481;SDS011;15703;49.588;6.260;2023-03-14T03:53:06;2.23;;;1.40;;
28481;SDS011;15703;49.588;6.260;2023-03-14T03:55:29;5.33;;;2.20;;
28481;SDS011;15703;49.588;6.260;2023-03-14T03:57:51;5.20;;;1.93;;
28481;SDS011;15703;49.588;6.260;2023-03-14T04:00:14;7.23;;;1.80;;
28481;SDS011;15703;49.588;6.260;2023-03-14T04:02:36;5.43;;;1.77;;
28481;SDS011;15703;49.588;6.260;2023-03-14T04:04:59;1.40;;;1.30;;
28481;SDS011;15703;49.588;6.260;2023-03-14T04:07:21;4.40;;;1.43;;
28481;SDS011;15703;49.588;6.260;2023-03-14T04:09:43;2.50;;;1.27;;
28481;SDS011;15703;49.588;6.260;2023-03-14T04:12:32;1.57;;;1.40;;
28481;SDS011;15703;49.588;6.260;2023-03-14T04:15:07;1.73;;;1.30;;
28481;SDS011;15703;49.588;6.260;2023-03-14T04:17:31;2.03;;;1.27;;
28481;SDS011;15703;49.588;6.260;2023-03-14T04:19:53;3.47;;;1.50;;
28481;SDS011;15703;49.588;6.260;2023-03-14T04:22:23;3.60;;;1.37;;
28481;SDS011;15703;49.588;6.260;2023-03-14T04:24:47;1.83;;;1.30;;
28481;SDS011;15703;49.588;6.260;2023-03-14T04:27:09;3.17;;;1.50;;
28481;SDS011;15703;49.588;6.260;2023-03-14T04:29:32;4.80;;;1.50;;
28481;SDS011;15703;49.588;6.260;2023-03-14T04:31:54;2.90;;;1.57;;
28481;SDS011;15703;49.588;6.260;2023-03-14T04:34:17;4.37;;;1.90;;
28481;SDS011;15703;49.588;6.260;2023-03-14T04:36:45;3.07;;;1.93;;
28481;SDS011;15703;49.588;6.260;2023-03-14T04:39:11;5.33;;;1.90;;
28481;SDS011;15703;49.588;6.260;2023-03-14T04:41:42;4.43;;;1.57;;
28481;SDS011;15703;49.588;6.260;2023-03-14T04:44:04;5.27;;;1.63;;
28481;SDS011;15703;49.588;6.260;2023-03-14T04:46:27;7.67;;;2.17;;
28481;SDS011;15703;49.588;6.260;2023-03-14T04:48:49;4.47;;;2.07;;
28481;SDS011;15703;49.588;6.260;2023-03-14T04:51:12;5.70;;;1.80;;
28481;SDS011;15703;49.588;6.260;2023-03-14T04:53:35;7.47;;;2.43;;
28481;SDS011;15703;49.588;6.260;2023-03-14T04:56:02;8.13;;;2.20;;
28481;SDS011;15703;49.588;6.260;2023-03-14T04:58:32;4.07;;;2.07;;
28481;SDS011;15703;49.588;6.260;2023-03-14T05:01:00;10.77;;;2.33;;
28481;SDS011;15703;49.588;6.260;2023-03-14T05:03:35;7.63;;;1.87;;
28481;SDS011;15703;49.588;6.260;2023-03-14T05:06:13;3.43;;;1.83;;
28481;SDS011;15703;49.588;6.260;2023-03-14T05:08:54;2.87;;;1.90;;
28481;SDS011;15703;49.588;6.260;2023-03-14T05:11:19;6.73;;;2.40;;
28481;SDS011;15703;49.588;6.260;2023-03-14T05:14:09;6.30;;;1.83;;
28481;SDS011;15703;49.588;6.260;2023-03-14T05:16:49;7.57;;;2.30;;
28481;SDS011;15703;49.588;6.260;2023-03-14T05:19:29;10.17;;;3.10;;
28481;SDS011;15703;49.588;6.260;2023-03-14T05:22:12;3.53;;;2.03;;
28481;SDS011;15703;49.588;6.260;2023-03-14T05:24:48;10.70;;;2.53;;
28481;SDS011;15703;49.588;6.260;2023-03-14T05:27:40;7.57;;;2.13;;
28481;SDS011;15703;49.588;6.260;2023-03-14T05:30:38;9.40;;;2.73;;
28481;SDS011;15703;49.588;6.260;2023-03-14T05:33:19;4.33;;;2.17;;
28481;SDS011;15703;49.588;6.260;2023-03-14T05:36:02;7.40;;;2.10;;
28481;SDS011;15703;49.588;6.260;2023-03-14T05:38:53;2.27;;;1.73;;
28481;SDS011;15703;49.588;6.260;2023-03-14T05:41:34;6.57;;;2.20;;
28481;SDS011;15703;49.588;6.260;2023-03-14T05:44:15;4.03;;;1.80;;
28481;SDS011;15703;49.588;6.260;2023-03-14T05:47:09;4.77;;;1.83;;
28481;SDS011;15703;49.588;6.260;2023-03-14T05:49:45;3.27;;;2.07;;
28481;SDS011;15703;49.588;6.260;2023-03-14T05:52:36;5.07;;;2.00;;
28481;SDS011;15703;49.588;6.260;2023-03-14T05:55:01;3.63;;;1.70;;
28481;SDS011;15703;49.588;6.260;2023-03-14T05:57:42;5.87;;;1.60;;
28481;SDS011;15703;49.588;6.260;2023-03-14T06:00:15;1.43;;;1.33;;
28481;SDS011;15703;49.588;6.260;2023-03-14T06:02:47;3.07;;;1.50;;
28481;SDS011;15703;49.588;6.260;2023-03-14T06:05:17;5.47;;;1.70;;
28481;SDS011;15703;49.588;6.260;2023-03-14T06:07:41;4.73;;;1.93;;
28481;SDS011;15703;49.588;6.260;2023-03-14T06:10:04;4.67;;;1.70;;
28481;SDS011;15703;49.588;6.260;2023-03-14T06:12:27;4.97;;;1.50;;
28481;SDS011;15703;49.588;6.260;2023-03-14T06:14:53;6.83;;;1.70;;
28481;SDS011;15703;49.588;6.260;2023-03-14T06:17:15;3.93;;;1.60;;
28481;SDS011;15703;49.588;6.260;2023-03-14T06:19:45;2.10;;;1.40;;
28481;SDS011;15703;49.588;6.260;2023-03-14T06:22:16;4.00;;;1.60;;
28481;SDS011;15703;49.588;6.260;2023-03-14T06:24:40;3.07;;;1.47;;
28481;SDS011;15703;49.588;6.260;2023-03-14T06:27:06;1.70;;;1.20;;
28481;SDS011;15703;49.588;6.260;2023-03-14T06:29:28;5.33;;;1.73;;
28481;SDS011;15703;49.588;6.260;2023-03-14T06:31:51;3.57;;;1.63;;
28481;SDS011;15703;49.588;6.260;2023-03-14T06:34:14;2.80;;;1.27;;
28481;SDS011;15703;49.588;6.260;2023-03-14T06:36:37;2.97;;;1.30;;
28481;SDS011;15703;49.588;6.260;2023-03-14T06:39:03;1.23;;;1.13;;
28481;SDS011;15703;49.588;6.260;2023-03-14T06:41:27;3.83;;;1.50;;
28481;SDS011;15703;49.588;6.260;2023-03-14T06:43:52;4.23;;;1.50;;
28481;SDS011;15703;49.588;6.260;2023-03-14T06:46:17;3.63;;;1.67;;
28481;SDS011;15703;49.588;6.260;2023-03-14T06:48:42;5.67;;;1.60;;
28481;SDS011;15703;49.588;6.260;2023-03-14T06:51:07;1.63;;;1.30;;
28481;SDS011;15703;49.588;6.260;2023-03-14T06:53:29;3.90;;;1.33;;
28481;SDS011;15703;49.588;6.260;2023-03-14T06:55:54;1.10;;;1.00;;
28481;SDS011;15703;49.588;6.260;2023-03-14T06:58:19;1.30;;;1.20;;
28481;SDS011;15703;49.588;6.260;2023-03-14T07:00:42;1.50;;;1.37;;
28481;SDS011;15703;49.588;6.260;2023-03-14T07:03:18;2.30;;;1.23;;
28481;SDS011;15703;49.588;6.260;2023-03-14T07:05:43;1.87;;;1.10;;
28481;SDS011;15703;49.588;6.260;2023-03-14T07:08:06;1.33;;;1.20;;
28481;SDS011;15703;49.588;6.260;2023-03-14T07:10:29;2.97;;;1.30;;
28481;SDS011;15703;49.588;6.260;2023-03-14T07:12:51;1.63;;;1.40;;
28481;SDS011;15703;49.588;6.260;2023-03-14T07:15:17;2.03;;;1.20;;
28481;SDS011;15703;49.588;6.260;2023-03-14T07:17:45;2.30;;;1.30;;
28481;SDS011;15703;49.588;6.260;2023-03-14T07:20:12;1.00;;;1.00;;
28481;SDS011;15703;49.588;6.260;2023-03-14T07:22:34;1.43;;;1.20;;
28481;SDS011;15703;49.588;6.260;2023-03-14T07:24:58;2.20;;;1.20;;
28481;SDS011;15703;49.588;6.260;2023-03-14T07:27:23;2.73;;;1.23;;
28481;SDS011;15703;49.588;6.260;2023-03-14T07:29:46;2.40;;;1.10;;
28481;SDS011;15703;49.588;6.260;2023-03-14T07:32:08;1.43;;;1.10;;
28481;SDS011;15703;49.588;6.260;2023-03-14T07:34:34;3.27;;;1.30;;
28481;SDS011;15703;49.588;6.260;2023-03-14T07:36:56;0.90;;;0.90;;
28481;SDS011;15703;49.588;6.260;2023-03-14T07:39:19;1.53;;;1.00;;
28481;SDS011;15703;49.588;6.260;2023-03-14T07:41:54;2.43;;;1.10;;
28481;SDS011;15703;49.588;6.260;2023-03-14T07:44:19;2.47;;;1.17;;
28481;SDS011;15703;49.588;6.260;2023-03-14T07:46:42;2.10;;;1.20;;
28481;SDS011;15703;49.588;6.260;2023-03-14T07:49:04;1.20;;;1.10;;
28481;SDS011;15703;49.588;6.260;2023-03-14T07:51:26;1.33;;;1.23;;
28481;SDS011;15703;49.588;6.260;2023-03-14T07:53:49;1.00;;;1.00;;
28481;SDS011;15703;49.588;6.260;2023-03-14T07:56:11;1.33;;;1.20;;
28481;SDS011;15703;49.588;6.260;2023-03-14T07:58:33;1.30;;;1.00;;
28481;SDS011;15703;49.588;6.260;2023-03-14T08:00:58;1.27;;;1.20;;
28481;SDS011;15703;49.588;6.260;2023-03-14T08:03:21;1.53;;;1.20;;
28481;SDS011;15703;49.588;6.260;2023-03-14T08:05:43;3.03;;;1.83;;
28481;SDS011;15703;49.588;6.260;2023-03-14T08:08:06;1.53;;;1.43;;
28481;SDS011;15703;49.588;6.260;2023-03-14T08:10:28;1.80;;;1.70;;
28481;SDS011;15703;49.588;6.260;2023-03-14T08:12:51;3.60;;;1.30;;
28481;SDS011;15703;49.588;6.260;2023-03-14T08:15:15;1.40;;;1.30;;
28481;SDS011;15703;49.588;6.260;2023-03-14T08:17:37;1.00;;;1.00;;
28481;SDS011;15703;49.588;6.260;2023-03-14T08:20:00;1.30;;;0.90;;
28481;SDS011;15703;49.588;6.260;2023-03-14T08:22:22;1.20;;;1.10;;
28481;SDS011;15703;49.588;6.260;2023-03-14T08:24:44;1.00;;;1.00;;
28481;SDS011;15703;49.588;6.260;2023-03-14T08:27:07;1.67;;;0.90;;
28481;SDS011;15703;49.588;6.260;2023-03-14T08:29:31;1.00;;;1.00;;
28481;SDS011;15703;49.588;6.260;2023-03-14T08:31:53;1.10;;;1.00;;
28481;SDS011;15703;49.588;6.260;2023-03-14T08:34:16;0.90;;;0.90;;
28481;SDS011;15703;49.588;6.260;2023-03-14T08:36:38;0.90;;;0.90;;
28481;SDS011;15703;49.588;6.260;2023-03-14T08:39:01;0.90;;;0.90;;
28481;SDS011;15703;49.588;6.260;2023-03-14T08:41:25;1.00;;;1.00;;
28481;SDS011;15703;49.588;6.260;2023-03-14T08:43:47;0.80;;;0.80;;
28481;SDS011;15703;49.588;6.260;2023-03-14T08:46:09;0.83;;;0.83;;
28481;SDS011;15703;49.588;6.260;2023-03-14T08:48:32;1.33;;;0.87;;
28481;SDS011;15703;49.588;6.260;2023-03-14T08:50:55;1.00;;;1.00;;
28481;SDS011;15703;49.588;6.260;2023-03-14T08:53:17;1.00;;;1.00;;
28481;SDS011;15703;49.588;6.260;2023-03-14T08:55:39;0.93;;;0.93;;
28481;SDS011;15703;49.588;6.260;2023-03-14T08:58:02;0.97;;;0.77;;
28481;SDS011;15703;49.588;6.260;2023-03-14T09:00:24;2.23;;;0.90;;
28481;SDS011;15703;49.588;6.260;2023-03-14T09:02:46;1.60;;;0.80;;
28481;SDS011;15703;49.588;6.260;2023-03-14T09:05:08;0.90;;;0.90;;
28481;SDS011;15703;49.588;6.260;2023-03-14T09:07:31;0.80;;;0.80;;
28481;SDS011;15703;49.588;6.260;2023-03-14T09:09:53;0.90;;;0.90;;
28481;SDS011;15703;49.588;6.260;2023-03-14T09:12:16;0.80;;;0.80;;
28481;SDS011;15703;49.588;6.260;2023-03-14T09:14:38;1.30;;;1.00;;
28481;SDS011;15703;49.588;6.260;2023-03-14T09:17:02;3.03;;;1.20;;
28481;SDS011;15703;49.588;6.260;2023-03-14T09:19:28;1.30;;;1.30;;
28481;SDS011;15703;49.588;6.260;2023-03-14T09:21:52;1.37;;;1.33;;
28481;SDS011;15703;49.588;6.260;2023-03-14T09:24:15;1.30;;;1.20;;
28481;SDS011;15703;49.588;6.260;2023-03-14T09:26:37;1.50;;;1.37;;
28481;SDS011;15703;49.588;6.260;2023-03-14T09:29:02;1.43;;;1.40;;
28481;SDS011;15703;49.588;6.260;2023-03-14T09:31:28;1.40;;;1.30;;
28481;SDS011;15703;49.588;6.260;2023-03-14T09:33:55;1.10;;;1.10;;
28481;SDS011;15703;49.588;6.260;2023-03-14T09:36:18;2.00;;;1.00;;
28481;SDS011;15703;49.588;6.260;2023-03-14T09:38:40;1.10;;;1.10;;
28481;SDS011;15703;49.588;6.260;2023-03-14T09:41:06;0.90;;;0.90;;
28481;SDS011;15703;49.588;6.260;2023-03-14T09:43:33;0.93;;;0.90;;
28481;SDS011;15703;49.588;6.260;2023-03-14T09:45:59;0.80;;;0.80;;
28481;SDS011;15703;49.588;6.260;2023-03-14T09:48:26;0.80;;;0.80;;
28481;SDS011;15703;49.588;6.260;2023-03-14T09:50:50;0.93;;;0.93;;
28481;SDS011;15703;49.588;6.260;2023-03-14T09:53:17;0.87;;;0.87;;
28481;SDS011;15703;49.588;6.260;2023-03-14T09:55:40;0.90;;;0.90;;
28481;SDS011;15703;49.588;6.260;2023-03-14T09:58:08;1.03;;;1.03;;
28481;SDS011;15703;49.588;6.260;2023-03-14T10:00:32;0.90;;;0.90;;
28481;SDS011;15703;49.588;6.260;2023-03-14T10:02:58;1.10;;;1.10;;
28481;SDS011;15703;49.588;6.260;2023-03-14T10:05:24;1.23;;;1.17;;
28481;SDS011;15703;49.588;6.260;2023-03-14T10:08:01;1.33;;;1.10;;
28481;SDS011;15703;49.588;6.260;2023-03-14T10:10:24;1.40;;;1.10;;
28481;SDS011;15703;49.588;6.260;2023-03-14T10:12:59;1.10;;;1.00;;
28481;SDS011;15703;49.588;6.260;2023-03-14T10:15:32;1.10;;;1.10;;
28481;SDS011;15703;49.588;6.260;2023-03-14T10:17:59;1.20;;;1.20;;
28481;SDS011;15703;49.588;6.260;2023-03-14T10:22:54;1.50;;;1.50;;
28481;SDS011;15703;49.588;6.260;2023-03-14T10:25:25;1.73;;;1.63;;
28481;SDS011;15703;49.588;6.260;2023-03-14T10:27:48;1.73;;;1.40;;
28481;SDS011;15703;49.588;6.260;2023-03-14T10:32:53;2.80;;;1.70;;
28481;SDS011;15703;49.588;6.260;2023-03-14T10:37:52;1.93;;;1.70;;
28481;SDS011;15703;49.588;6.260;2023-03-14T10:40:15;1.63;;;1.53;;
28481;SDS011;15703;49.588;6.260;2023-03-14T10:42:42;1.73;;;1.40;;
28481;SDS011;15703;49.588;6.260;2023-03-14T10:47:50;1.50;;;1.40;;
28481;SDS011;15703;49.588;6.260;2023-03-14T10:50:24;4.30;;;1.53;;
28481;SDS011;15703;49.588;6.260;2023-03-14T10:52:47;1.50;;;1.40;;
28481;SDS011;15703;49.588;6.260;2023-03-14T10:55:23;2.17;;;1.30;;
28481;SDS011;15703;49.588;6.260;2023-03-14T10:57:49;1.97;;;1.80;;
28481;SDS011;15703;49.588;6.260;2023-03-14T11:00:20;1.40;;;1.30;;
28481;SDS011;15703;49.588;6.260;2023-03-14T11:05:11;4.83;;;1.43;;
28481;SDS011;15703;49.588;6.260;2023-03-14T11:07:40;2.47;;;1.70;;
28481;SDS011;15703;49.588;6.260;2023-03-14T11:17:40;3.60;;;1.50;;
28481;SDS011;15703;49.588;6.260;2023-03-14T11:22:39;2.53;;;1.67;;
28481;SDS011;15703;49.588;6.260;2023-03-14T11:27:40;5.17;;;2.07;;
28481;SDS011;15703;49.588;6.260;2023-03-14T11:30:06;3.90;;;1.47;;
28481;SDS011;15703;49.588;6.260;2023-03-14T11:35:01;1.53;;;1.30;;
28481;SDS011;15703;49.588;6.260;2023-03-14T11:39:51;1.53;;;1.20;;
28481;SDS011;15703;49.588;6.260;2023-03-14T11:42:17;2.80;;;1.23;;
28481;SDS011;15703;49.588;6.260;2023-03-14T11:44:39;2.37;;;1.30;;
28481;SDS011;15703;49.588;6.260;2023-03-14T11:47:05;1.47;;;1.10;;
28481;SDS011;15703;49.588;6.260;2023-03-14T11:52:15;1.53;;;1.33;;
28481;SDS011;15703;49.588;6.260;2023-03-14T11:54:43;2.97;;;1.20;;
28481;SDS011;15703;49.588;6.260;2023-03-14T11:57:12;1.27;;;1.07;;
28481;SDS011;15703;49.588;6.260;2023-03-14T12:00:04;3.33;;;1.37;;
28481;SDS011;15703;49.588;6.260;2023-03-14T12:10:53;3.20;;;1.40;;
28481;SDS011;15703;49.588;6.260;2023-03-14T12:13:15;4.30;;;2.00;;
28481;SDS011;15703;49.588;6.260;2023-03-14T12:15:39;1.60;;;1.27;;
28481;SDS011;15703;49.588;6.260;2023-03-14T12:18:12;2.27;;;1.30;;
28481;SDS011;15703;49.588;6.260;2023-03-14T12:20:37;2.63;;;2.17;;
28481;SDS011;15703;49.588;6.260;2023-03-14T12:23:10;2.53;;;1.30;;
28481;SDS011;15703;49.588;6.260;2023-03-14T12:25:34;2.93;;;1.40;;
28481;SDS011;15703;49.588;6.260;2023-03-14T12:38:12;2.17;;;1.40;;
28481;SDS011;15703;49.588;6.260;2023-03-14T12:40:37;1.60;;;1.37;;
28481;SDS011;15703;49.588;6.260;2023-03-14T12:43:01;1.77;;;1.53;;
28481;SDS011;15703;49.588;6.260;2023-03-14T12:50:32;3.07;;;1.20;;
28481;SDS011;15703;49.588;6.260;2023-03-14T13:00:30;2.80;;;1.10;;
28481;SDS011;15703;49.588;6.260;2023-03-14T13:05:40;2.00;;;1.03;;
28481;SDS011;15703;49.588;6.260;2023-03-14T13:08:13;1.80;;;1.30;;
28481;SDS011;15703;49.588;6.260;2023-03-14T13:10:53;2.77;;;1.30;;
28481;SDS011;15703;49.588;6.260;2023-03-14T13:13:23;3.20;;;1.57;;
28481;SDS011;15703;49.588;6.260;2023-03-14T13:15:48;2.23;;;1.20;;
28481;SDS011;15703;49.588;6.260;2023-03-14T13:20:36;2.63;;;1.27;;
28481;SDS011;15703;49.588;6.260;2023-03-14T13:23:03;2.47;;;1.17;;
28481;SDS011;15703;49.588;6.260;2023-03-14T13:25:38;2.73;;;1.20;;
28481;SDS011;15703;49.588;6.260;2023-03-14T13:28:03;2.57;;;1.03;;
28481;SDS011;15703;49.588;6.260;2023-03-14T13:30:28;3.00;;;1.40;;
28481;SDS011;15703;49.588;6.260;2023-03-14T13:32:51;2.77;;;1.43;;
28481;SDS011;15703;49.588;6.260;2023-03-14T13:35:16;3.13;;;1.30;;
28481;SDS011;15703;49.588;6.260;2023-03-14T13:37:39;3.00;;;1.20;;
28481;SDS011;15703;49.588;6.260;2023-03-14T13:40:02;2.90;;;1.47;;
28481;SDS011;15703;49.588;6.260;2023-03-14T13:42:27;4.03;;;1.60;;
28481;SDS011;15703;49.588;6.260;2023-03-14T13:44:50;3.83;;;1.40;;
28481;SDS011;15703;49.588;6.260;2023-03-14T13:47:17;3.23;;;1.10;;
28481;SDS011;15703;49.588;6.260;2023-03-14T13:49:42;4.13;;;1.40;;
28481;SDS011;15703;49.588;6.260;2023-03-14T13:52:22;2.90;;;1.30;;
28481;SDS011;15703;49.588;6.260;2023-03-14T13:54:45;1.10;;;1.00;;
28481;SDS011;15703;49.588;6.260;2023-03-14T13:57:11;2.37;;;1.40;;
28481;SDS011;15703;49.588;6.260;2023-03-14T13:59:37;2.93;;;1.20;;
28481;SDS011;15703;49.588;6.260;2023-03-14T14:02:15;1.97;;;1.17;;
28481;SDS011;15703;49.588;6.260;2023-03-14T14:04:39;1.97;;;1.07;;
28481;SDS011;15703;49.588;6.260;2023-03-14T14:07:07;2.17;;;1.20;;
28481;SDS011;15703;49.588;6.260;2023-03-14T14:09:31;1.50;;;1.10;;
28481;SDS011;15703;49.588;6.260;2023-03-14T14:12:17;1.27;;;1.00;;
28481;SDS011;15703;49.588;6.260;2023-03-14T14:14:44;2.70;;;1.30;;
28481;SDS011;15703;49.588;6.260;2023-03-14T14:17:10;1.43;;;1.20;;
28481;SDS011;15703;49.588;6.260;2023-03-14T14:19:34;5.33;;;1.30;;
28481;SDS011;15703;49.588;6.260;2023-03-14T14:21:58;4.43;;;1.27;;
28481;SDS011;15703;49.588;6.260;2023-03-14T14:24:22;2.73;;;1.27;;
28481;SDS011;15703;49.588;6.260;2023-03-14T14:26:54;4.73;;;1.27;;
28481;SDS011;15703;49.588;6.260;2023-03-14T14:29:27;4.10;;;1.53;;
28481;SDS011;15703;49.588;6.260;2023-03-14T14:31:58;2.70;;;1.30;;
28481;SDS011;15703;49.588;6.260;2023-03-14T14:34:21;3.97;;;1.23;;
28481;SDS011;15703;49.588;6.260;2023-03-14T14:36:47;2.67;;;1.00;;
28481;SDS011;15703;49.588;6.260;2023-03-14T14:41:40;2.53;;;1.50;;
28481;SDS011;15703;49.588;6.260;2023-03-14T14:44:03;4.63;;;1.63;;
28481;SDS011;15703;49.588;6.260;2023-03-14T14:46:36;4.17;;;1.37;;
28481;SDS011;15703;49.588;6.260;2023-03-14T14:49:02;3.47;;;1.77;;
28481;SDS011;15703;49.588;6.260;2023-03-14T14:51:26;4.27;;;1.20;;
28481;SDS011;15703;49.588;6.260;2023-03-14T14:53:48;5.07;;;1.40;;
28481;SDS011;15703;49.588;6.260;2023-03-14T14:56:25;1.67;;;1.10;;
28481;SDS011;15703;49.588;6.260;2023-03-14T14:58:48;5.83;;;1.37;;
28481;SDS011;15703;49.588;6.260;2023-03-14T15:01:14;4.37;;;1.70;;
28481;SDS011;15703;49.588;6.260;2023-03-14T15:03:41;6.23;;;1.40;;
28481;SDS011;15703;49.588;6.260;2023-03-14T15:06:04;2.37;;;1.50;;
28481;SDS011;15703;49.588;6.260;2023-03-14T15:08:26;3.77;;;1.47;;
28481;SDS011;15703;49.588;6.260;2023-03-14T15:10:49;1.70;;;1.60;;
28481;SDS011;15703;49.588;6.260;2023-03-14T15:13:11;3.73;;;1.83;;
28481;SDS011;15703;49.588;6.260;2023-03-14T15:15:34;2.00;;;1.50;;
28481;SDS011;15703;49.588;6.260;2023-03-14T15:17:57;1.73;;;1.60;;
28481;SDS011;15703;49.588;6.260;2023-03-14T15:20:19;6.07;;;1.83;;
28481;SDS011;15703;49.588;6.260;2023-03-14T15:22:45;1.53;;;1.30;;
28481;SDS011;15703;49.588;6.260;2023-03-14T15:25:08;5.23;;;1.87;;
28481;SDS011;15703;49.588;6.260;2023-03-14T15:27:47;5.30;;;1.73;;
28481;SDS011;15703;49.588;6.260;2023-03-14T15:30:10;2.50;;;1.50;;
28481;SDS011;15703;49.588;6.260;2023-03-14T15:32:33;3.67;;;1.50;;
28481;SDS011;15703;49.588;6.260;2023-03-14T15:34:55;3.77;;;1.40;;
28481;SDS011;15703;49.588;6.260;2023-03-14T15:37:18;5.73;;;2.23;;
28481;SDS011;15703;49.588;6.260;2023-03-14T15:39:40;2.83;;;1.93;;
28481;SDS011;15703;49.588;6.260;2023-03-14T15:42:02;2.33;;;1.50;;
28481;SDS011;15703;49.588;6.260;2023-03-14T15:44:25;6.03;;;1.63;;
28481;SDS011;15703;49.588;6.260;2023-03-14T15:46:47;4.80;;;1.50;;
28481;SDS011;15703;49.588;6.260;2023-03-14T15:49:09;2.30;;;1.50;;
28481;SDS011;15703;49.588;6.260;2023-03-14T15:51:31;3.13;;;2.50;;
28481;SDS011;15703;49.588;6.260;2023-03-14T15:53:54;4.20;;;1.80;;
28481;SDS011;15703;49.588;6.260;2023-03-14T15:56:17;3.17;;;1.60;;